Time;durP1;ratioP1;P1;durP2;ratioP2;P2;SDS_P1;SDS_P2;PMS_P1;PMS_P2;Temp;Humidity;BMP_temperature;BMP_pressure;BME280_temperature;BME280_humidity;BME280_pressure;Samples;Min_cycle;Max_cycle;Signal;HPM_P1;HPM_P2
2021/04/17 00:01:15;;;;;;;18.13;16.80;;;6.50;99.90;;;;;;5023485;28;20973;-74
2021/04/17 00:03:41;;;;;;;18.47;17.07;;;6.50;99.90;;;;;;5024556;28;20466;-71
2021/04/17 00:06:08;;;;;;;18.70;17.20;;;6.40;99.90;;;;;;5023825;28;20909;-71
2021/04/17 00:08:35;;;;;;;18.73;17.07;;;6.40;99.90;;;;;;5015297;28;20500;-72
2021/04/17 00:11:03;;;;;;;19.17;17.57;;;6.30;99.90;;;;;;5022529;28;20802;-71
2021/04/17 00:13:29;;;;;;;19.50;17.97;;;6.30;99.90;;;;;;5018426;28;20477;-71
2021/04/17 00:15:55;;;;;;;18.90;17.30;;;6.30;99.90;;;;;;5021064;28;20461;-70
2021/04/17 00:18:22;;;;;;;20.03;18.10;;;6.30;99.90;;;;;;5015917;28;20512;-72
2021/04/17 00:20:48;;;;;;;19.27;17.67;;;6.30;99.90;;;;;;5021387;28;20476;-72
2021/04/17 00:23:16;;;;;;;18.30;16.80;;;6.30;99.90;;;;;;5019875;28;20836;-72
2021/04/17 00:25:42;;;;;;;18.60;17.10;;;6.30;99.90;;;;;;5025778;28;20552;-71
2021/04/17 00:28:10;;;;;;;19.27;17.63;;;6.20;99.90;;;;;;5023481;28;20571;-71
2021/04/17 00:30:36;;;;;;;18.73;17.07;;;6.20;99.90;;;;;;5015151;28;20470;-73
2021/04/17 00:33:03;;;;;;;18.43;17.03;;;6.20;99.90;;;;;;5016668;28;20578;-71
2021/04/17 00:35:31;;;;;;;19.53;17.83;;;6.20;99.90;;;;;;5022055;28;20867;-71
2021/04/17 00:37:57;;;;;;;18.17;16.87;;;6.10;99.90;;;;;;5025350;28;20839;-73
2021/04/17 00:40:24;;;;;;;17.87;16.40;;;6.20;99.90;;;;;;5018915;28;20448;-70
2021/04/17 00:42:50;;;;;;;18.60;17.20;;;6.10;99.90;;;;;;5016968;28;20501;-71
2021/04/17 00:45:18;;;;;;;17.50;16.10;;;6.10;99.90;;;;;;5022051;28;20515;-73
2021/04/17 00:47:44;;;;;;;18.53;16.87;;;6.10;99.90;;;;;;5024005;28;20493;-73
2021/04/17 00:50:12;;;;;;;18.60;17.20;;;6.00;99.90;;;;;;5014180;28;20460;-72
2021/04/17 00:52:40;;;;;;;18.13;16.43;;;6.00;99.90;;;;;;5024969;28;20462;-71
2021/04/17 00:55:07;;;;;;;17.47;15.97;;;5.90;99.90;;;;;;5019596;28;20462;-72
2021/04/17 00:57:35;;;;;;;18.33;16.93;;;5.90;99.90;;;;;;5018780;28;20472;-69
2021/04/17 01:00:01;;;;;;;17.83;16.50;;;5.80;99.90;;;;;;5020911;28;20883;-70
2021/04/17 01:02:36;;;;;;;18.63;17.13;;;5.80;99.90;;;;;;5024966;28;20495;-74
2021/04/17 01:05:06;;;;;;;17.83;16.40;;;5.70;99.90;;;;;;5020931;28;20860;-72
2021/04/17 01:07:37;;;;;;;18.10;16.77;;;5.60;99.90;;;;;;5020620;28;20578;-72
2021/04/17 01:10:07;;;;;;;17.53;16.10;;;5.50;99.90;;;;;;5026600;28;20630;-71
2021/04/17 01:12:38;;;;;;;18.17;16.87;;;5.50;99.90;;;;;;5020531;28;20949;-73
2021/04/17 01:15:06;;;;;;;17.43;16.13;;;5.40;99.90;;;;;;5017415;28;20820;-72
2021/04/17 01:17:35;;;;;;;17.63;16.23;;;5.30;99.90;;;;;;5021110;28;20460;-71
2021/04/17 01:20:10;;;;;;;18.40;16.67;;;5.30;99.90;;;;;;5016758;28;20461;-74
2021/04/17 01:22:37;;;;;;;18.27;16.77;;;5.20;99.90;;;;;;5019273;28;20468;-73
2021/04/17 01:25:08;;;;;;;17.10;15.90;;;5.20;99.90;;;;;;5023919;28;20469;-72
2021/04/17 01:27:36;;;;;;;18.30;16.80;;;5.10;99.90;;;;;;5023170;28;20517;-73
2021/04/17 01:30:09;;;;;;;17.50;16.20;;;5.00;99.90;;;;;;5020614;28;20456;-73
2021/04/17 01:32:36;;;;;;;17.53;16.23;;;4.90;99.90;;;;;;5018553;28;20497;-71
2021/04/17 01:35:03;;;;;;;18.83;16.90;;;4.90;99.90;;;;;;5019346;28;20458;-73
2021/04/17 01:38:11;;;;;;;17.20;15.80;;;4.90;99.90;;;;;;5021192;28;20472;-71
2021/04/17 01:40:39;;;;;;;17.63;16.10;;;4.90;99.90;;;;;;5020754;28;20698;-71
2021/04/17 01:43:08;;;;;;;18.30;16.80;;;4.90;99.90;;;;;;5023820;28;20456;-72
2021/04/17 01:45:37;;;;;;;40.20;17.67;;;4.80;99.90;;;;;;5018937;28;20460;-73
2021/04/17 01:48:06;;;;;;;18.70;17.20;;;4.70;99.90;;;;;;5019604;28;20487;-71
2021/04/17 01:50:33;;;;;;;19.47;17.47;;;4.70;99.90;;;;;;5022229;28;20923;-69
2021/04/17 01:53:01;;;;;;;19.00;17.50;;;4.70;99.90;;;;;;5020503;28;20464;-71
2021/04/17 01:55:31;;;;;;;17.93;16.23;;;4.60;99.90;;;;;;5020469;28;20564;-71
2021/04/17 01:58:00;;;;;;;18.67;17.17;;;4.60;99.90;;;;;;5017717;28;20476;-71
2021/04/17 02:00:27;;;;;;;19.27;16.80;;;4.60;99.90;;;;;;5014766;28;20468;-70
2021/04/17 02:02:54;;;;;;;18.00;16.70;;;4.50;99.90;;;;;;5014631;28;20456;-70
2021/04/17 02:05:21;;;;;;;18.20;16.83;;;4.40;99.90;;;;;;5022005;28;20469;-74
2021/04/17 02:07:47;;;;;;;19.43;17.63;;;4.40;99.90;;;;;;5010452;28;20504;-73
2021/04/17 02:10:14;;;;;;;18.20;16.60;;;4.30;99.90;;;;;;5020271;28;20503;-71
2021/04/17 02:12:41;;;;;;;17.83;16.43;;;4.30;99.90;;;;;;5016011;28;20465;-72
2021/04/17 02:15:09;;;;;;;18.10;16.50;;;4.20;99.90;;;;;;5020811;28;20464;-72
2021/04/17 02:17:49;;;;;;;18.27;16.53;;;4.20;99.90;;;;;;5017296;28;20469;-74
2021/04/17 02:20:22;;;;;;;18.43;16.60;;;4.10;99.90;;;;;;5014166;28;20838;-73
2021/04/17 02:22:49;;;;;;;18.10;16.50;;;4.00;99.90;;;;;;5015969;28;21022;-75
2021/04/17 02:25:16;;;;;;;18.47;16.90;;;3.80;99.90;;;;;;5022690;28;20469;-73
2021/04/17 02:27:42;;;;;;;17.83;16.33;;;3.60;99.90;;;;;;5018917;28;20496;-73
2021/04/17 02:30:09;;;;;;;18.53;17.13;;;3.50;99.90;;;;;;5018463;28;20833;-74
2021/04/17 02:32:38;;;;;;;19.33;17.60;;;3.30;99.90;;;;;;5018883;28;20866;-72
2021/04/17 02:35:05;;;;;;;19.00;17.07;;;3.10;99.90;;;;;;5021886;28;20984;-73
2021/04/17 02:37:31;;;;;;;19.63;17.93;;;3.00;99.90;;;;;;5029115;28;20515;-74
2021/04/17 02:39:58;;;;;;;19.53;17.73;;;2.90;99.90;;;;;;5018392;28;21044;-73
2021/04/17 02:42:24;;;;;;;19.57;17.97;;;2.80;99.90;;;;;;5015280;28;20469;-74
2021/04/17 02:44:50;;;;;;;20.10;18.47;;;2.70;99.90;;;;;;5018432;28;20474;-74
2021/04/17 02:47:18;;;;;;;20.33;18.40;;;2.50;99.90;;;;;;5019915;28;21183;-74
2021/04/17 02:49:46;;;;;;;19.57;17.60;;;2.40;99.90;;;;;;5021830;28;20513;-72
2021/04/17 02:52:12;;;;;;;19.10;17.60;;;2.40;99.90;;;;;;5023965;28;20468;-74
2021/04/17 02:54:40;;;;;;;21.13;18.93;;;2.30;99.90;;;;;;5014550;28;20477;-74
2021/04/17 02:57:08;;;;;;;19.83;18.13;;;2.20;99.90;;;;;;5018164;28;20498;-72
2021/04/17 02:59:34;;;;;;;19.37;17.77;;;2.20;99.90;;;;;;5025151;28;20471;-71
2021/04/17 03:02:00;;;;;;;20.87;18.90;;;2.20;99.90;;;;;;5026523;28;20463;-75
2021/04/17 03:04:27;;;;;;;20.13;18.23;;;2.20;99.90;;;;;;5029697;28;20464;-73
2021/04/17 03:06:54;;;;;;;18.47;16.97;;;2.30;99.90;;;;;;5023644;28;20460;-72
2021/04/17 03:09:20;;;;;;;19.67;17.70;;;2.40;99.90;;;;;;5020884;28;20851;-74
2021/04/17 03:11:47;;;;;;;22.00;18.60;;;2.30;99.90;;;;;;5023284;28;20494;-71
2021/04/17 03:14:13;;;;;;;19.77;17.70;;;2.30;99.90;;;;;;5019188;28;20480;-73
2021/04/17 03:16:39;;;;;;;21.40;19.63;;;2.20;99.90;;;;;;5024350;28;20460;-73
2021/04/17 03:19:06;;;;;;;19.97;18.27;;;2.10;99.90;;;;;;5025450;28;20827;-73
2021/04/17 03:21:32;;;;;;;20.97;18.50;;;2.00;99.90;;;;;;5021988;28;20461;-72
2021/04/17 03:23:59;;;;;;;17.93;16.53;;;1.90;99.90;;;;;;5022017;28;20468;-75
2021/04/17 03:26:27;;;;;;;18.60;17.10;;;1.90;99.90;;;;;;5019551;28;20480;-75
2021/04/17 03:28:53;;;;;;;20.13;18.20;;;1.80;99.90;;;;;;5014555;28;20491;-72
2021/04/17 03:31:20;;;;;;;18.53;16.77;;;1.70;99.90;;;;;;5025024;28;21061;-76
2021/04/17 03:33:47;;;;;;;19.13;17.53;;;1.70;99.90;;;;;;5025433;28;20487;-73
2021/04/17 03:36:13;;;;;;;18.80;16.97;;;1.70;99.90;;;;;;5021506;28;20483;-73
2021/04/17 03:38:40;;;;;;;19.33;17.60;;;1.60;99.90;;;;;;5025514;28;20455;-73
2021/04/17 03:41:07;;;;;;;18.97;17.40;;;1.60;99.90;;;;;;5024882;28;20855;-74
2021/04/17 03:43:34;;;;;;;18.97;17.40;;;1.60;99.90;;;;;;5017489;28;20981;-74
2021/04/17 03:46:00;;;;;;;20.27;18.27;;;1.50;99.90;;;;;;5023380;28;20813;-74
2021/04/17 03:48:27;;;;;;;20.00;18.10;;;1.40;99.90;;;;;;5025470;28;20498;-74
2021/04/17 03:50:53;;;;;;;19.57;17.93;;;1.40;99.90;;;;;;5018821;28;20469;-72
2021/04/17 03:53:20;;;;;;;19.27;17.60;;;1.30;99.90;;;;;;5017180;28;20485;-71
2021/04/17 03:55:47;;;;;;;20.53;18.50;;;1.20;99.90;;;;;;5025924;28;20543;-72
2021/04/17 03:58:15;;;;;;;21.70;19.60;;;1.20;99.90;;;;;;5020679;28;20463;-73
2021/04/17 04:00:41;;;;;;;22.80;18.50;;;1.20;99.90;;;;;;5019300;28;20467;-72
2021/04/17 04:03:08;;;;;;;19.43;17.93;;;1.20;99.90;;;;;;5019218;28;20470;-74
2021/04/17 04:05:34;;;;;;;25.30;19.73;;;1.10;99.90;;;;;;5023608;28;20532;-73
2021/04/17 04:08:00;;;;;;;20.70;18.77;;;1.10;99.90;;;;;;5017107;28;21342;-72
2021/04/17 04:10:28;;;;;;;20.60;18.77;;;1.20;99.90;;;;;;5026187;28;20464;-72
2021/04/17 04:12:54;;;;;;;24.00;19.00;;;1.20;99.90;;;;;;5020812;28;20529;-71
2021/04/17 04:15:21;;;;;;;20.13;18.20;;;1.30;99.90;;;;;;5021546;28;20532;-69
2021/04/17 04:17:47;;;;;;;20.73;18.83;;;1.40;99.90;;;;;;5024287;28;20474;-70
2021/04/17 04:20:14;;;;;;;19.60;17.80;;;1.50;99.90;;;;;;5016112;28;20555;-74
2021/04/17 04:22:41;;;;;;;20.60;18.60;;;1.50;99.90;;;;;;5021362;28;21022;-74
2021/04/17 04:25:10;;;;;;;20.07;18.03;;;1.60;99.90;;;;;;5023311;28;20465;-70
2021/04/17 04:27:38;;;;;;;20.90;18.87;;;1.70;99.90;;;;;;5026499;28;20515;-71
2021/04/17 04:30:07;;;;;;;20.73;19.07;;;1.70;99.90;;;;;;5023917;28;20831;-73
2021/04/17 04:32:36;;;;;;;21.23;19.03;;;1.80;99.90;;;;;;5024116;28;20506;-74
2021/04/17 04:35:03;;;;;;;18.93;17.43;;;1.90;99.90;;;;;;5012748;28;20471;-73
2021/04/17 04:37:30;;;;;;;27.20;18.97;;;2.00;99.90;;;;;;5017555;28;20463;-73
2021/04/17 04:39:56;;;;;;;19.70;17.80;;;2.00;99.90;;;;;;5021108;28;20479;-69
2021/04/17 04:42:22;;;;;;;18.87;17.37;;;2.10;99.90;;;;;;5017308;28;20469;-73
2021/04/17 04:44:49;;;;;;;18.83;17.40;;;2.10;99.90;;;;;;5019747;28;20869;-74
2021/04/17 04:47:16;;;;;;;20.50;18.90;;;2.10;99.90;;;;;;5024174;28;20473;-70
2021/04/17 04:49:44;;;;;;;19.60;17.90;;;2.10;99.90;;;;;;5015310;28;21007;-71
2021/04/17 04:52:10;;;;;;;20.30;18.30;;;2.20;99.90;;;;;;5021918;28;20463;-72
2021/04/17 04:54:37;;;;;;;20.97;19.20;;;2.20;99.90;;;;;;5022468;28;20492;-70
2021/04/17 04:57:03;;;;;;;19.07;17.43;;;2.30;99.90;;;;;;5017884;28;20469;-74
2021/04/17 04:59:30;;;;;;;20.10;18.20;;;2.30;99.90;;;;;;5023520;28;20461;-71
2021/04/17 05:01:56;;;;;;;20.77;18.87;;;2.30;99.90;;;;;;5021092;28;20989;-71
2021/04/17 05:04:23;;;;;;;19.80;18.10;;;2.30;99.90;;;;;;5022070;28;20468;-73
2021/04/17 05:06:50;;;;;;;21.40;19.40;;;2.30;99.90;;;;;;5017243;28;20577;-69
2021/04/17 05:09:16;;;;;;;20.20;18.43;;;2.30;99.90;;;;;;5018976;28;21069;-72
2021/04/17 05:11:42;;;;;;;20.23;18.33;;;2.40;99.90;;;;;;5023675;28;20464;-73
2021/04/17 05:14:09;;;;;;;19.43;17.83;;;2.40;99.90;;;;;;5018302;28;21093;-72
2021/04/17 05:16:35;;;;;;;20.20;18.40;;;2.50;99.90;;;;;;5023189;28;20471;-74
2021/04/17 05:19:01;;;;;;;19.43;17.80;;;2.50;99.90;;;;;;5021559;28;20468;-71
2021/04/17 05:21:28;;;;;;;19.40;17.80;;;2.60;99.90;;;;;;5022219;28;20457;-73
2021/04/17 05:23:56;;;;;;;21.17;19.20;;;2.60;99.90;;;;;;5022597;28;20473;-71
2021/04/17 05:26:23;;;;;;;21.27;19.17;;;2.60;99.90;;;;;;5022966;28;20462;-74
2021/04/17 05:28:49;;;;;;;20.10;18.43;;;2.70;99.90;;;;;;5019399;28;20495;-74
2021/04/17 05:31:16;;;;;;;20.70;19.07;;;2.80;99.90;;;;;;5022061;28;20465;-70
2021/04/17 05:33:42;;;;;;;22.27;19.90;;;2.90;99.90;;;;;;5022228;28;20488;-73
2021/04/17 05:36:09;;;;;;;22.43;18.47;;;2.90;99.90;;;;;;5021956;28;20465;-73
2021/04/17 05:38:35;;;;;;;19.77;18.17;;;3.00;99.90;;;;;;5017937;28;20476;-70
2021/04/17 05:41:03;;;;;;;20.80;18.83;;;3.20;99.90;;;;;;5021020;28;20462;-72
2021/04/17 05:43:29;;;;;;;19.70;18.00;;;3.30;99.90;;;;;;5018001;28;20468;-74
2021/04/17 05:45:56;;;;;;;20.77;18.20;;;3.30;99.90;;;;;;5019135;28;20861;-73
2021/04/17 05:48:22;;;;;;;19.47;17.77;;;3.30;99.90;;;;;;5024417;28;20496;-72
2021/04/17 05:50:49;;;;;;;19.80;18.10;;;3.40;99.90;;;;;;5022148;28;20516;-74
2021/04/17 05:53:15;;;;;;;18.87;17.30;;;3.40;99.90;;;;;;5020269;28;20500;-75
2021/04/17 05:55:41;;;;;;;19.57;17.57;;;3.60;99.90;;;;;;5019698;28;20466;-72
2021/04/17 05:58:09;;;;;;;20.13;18.33;;;3.60;99.90;;;;;;5018322;28;20475;-72
2021/04/17 06:00:35;;;;;;;20.20;18.53;;;3.70;99.90;;;;;;5020562;28;20717;-70
2021/04/17 06:03:03;;;;;;;21.37;19.47;;;3.80;99.90;;;;;;5024729;28;20503;-73
2021/04/17 06:05:31;;;;;;;21.07;19.27;;;3.80;99.90;;;;;;5022917;28;20460;-72
2021/04/17 06:07:58;;;;;;;20.93;19.13;;;3.90;99.90;;;;;;5013973;28;20588;-72
2021/04/17 06:10:26;;;;;;;20.17;18.63;;;4.00;99.90;;;;;;5016406;28;20457;-72
2021/04/17 06:12:52;;;;;;;20.30;18.70;;;4.10;99.90;;;;;;5022529;28;20473;-71
2021/04/17 06:15:19;;;;;;;20.47;18.27;;;4.10;99.90;;;;;;5014200;28;21284;-75
2021/04/17 06:17:46;;;;;;;20.60;18.80;;;4.20;99.90;;;;;;5020135;28;20465;-74
2021/04/17 06:20:13;;;;;;;23.00;19.03;;;4.40;99.90;;;;;;5023137;28;20479;-73
2021/04/17 06:22:39;;;;;;;23.00;20.70;;;4.50;99.90;;;;;;5017040;28;20465;-74
2021/04/17 06:25:07;;;;;;;22.33;20.43;;;4.60;99.90;;;;;;5022290;28;20461;-72
2021/04/17 06:27:33;;;;;;;21.37;18.47;;;4.70;99.90;;;;;;5018140;28;20968;-73
2021/04/17 06:30:00;;;;;;;24.30;20.13;;;4.80;99.90;;;;;;5020828;28;20464;-71
2021/04/17 06:32:27;;;;;;;22.97;20.80;;;4.80;99.90;;;;;;5020949;28;20511;-73
2021/04/17 06:34:54;;;;;;;21.47;19.43;;;4.80;99.90;;;;;;5019131;28;20506;-74
2021/04/17 06:37:20;;;;;;;26.47;20.40;;;4.90;99.90;;;;;;5016300;28;20472;-74
2021/04/17 06:39:47;;;;;;;23.57;20.47;;;5.10;99.90;;;;;;5021158;28;20457;-71
2021/04/17 06:42:16;;;;;;;21.50;18.70;;;5.20;99.90;;;;;;5013242;28;20980;-72
2021/04/17 06:44:44;;;;;;;26.83;19.60;;;5.30;99.90;;;;;;5021684;28;20523;-73
2021/04/17 06:47:12;;;;;;;19.67;17.73;;;5.40;99.90;;;;;;5021490;28;20469;-74
2021/04/17 06:49:41;;;;;;;24.23;19.50;;;5.40;99.90;;;;;;5022283;28;20488;-73
2021/04/17 06:52:10;;;;;;;20.53;18.83;;;5.40;99.90;;;;;;5016427;28;20874;-72
2021/04/17 06:54:38;;;;;;;21.73;19.50;;;5.50;99.90;;;;;;5018394;28;21017;-74
2021/04/17 06:57:05;;;;;;;21.07;19.00;;;5.60;99.90;;;;;;5016792;28;20464;-72
2021/04/17 06:59:32;;;;;;;22.53;20.23;;;5.70;99.90;;;;;;5011787;28;20512;-70
2021/04/17 07:01:59;;;;;;;22.20;20.20;;;5.80;99.90;;;;;;5019127;28;20458;-73
2021/04/17 07:04:26;;;;;;;26.53;20.83;;;5.80;99.90;;;;;;5018036;28;20456;-70
2021/04/17 07:06:54;;;;;;;20.90;18.80;;;6.00;99.90;;;;;;5015510;28;20544;-70
2021/04/17 07:09:20;;;;;;;21.83;19.73;;;6.00;99.90;;;;;;5014933;28;20853;-71
2021/04/17 07:11:47;;;;;;;21.30;18.97;;;6.10;99.90;;;;;;5019662;28;20526;-70
2021/04/17 07:14:16;;;;;;;22.70;20.33;;;6.20;99.90;;;;;;5009856;28;20556;-71
2021/04/17 07:16:57;;;;;;;22.10;19.93;;;6.30;99.90;;;;;;5019235;28;20464;-71
2021/04/17 07:19:24;;;;;;;20.23;18.43;;;6.40;99.90;;;;;;5014207;28;20467;-71
2021/04/17 07:24:33;;;;;;;21.83;19.77;;;6.60;99.90;;;;;;5013222;28;20976;-70
2021/04/17 07:27:00;;;;;;;22.50;20.40;;;6.70;99.90;;;;;;5021343;28;20841;-69
2021/04/17 07:29:27;;;;;;;23.07;20.60;;;6.70;99.90;;;;;;5021654;28;21037;-70
2021/04/17 07:31:55;;;;;;;22.30;20.40;;;6.80;99.90;;;;;;5023021;28;20496;-72
2021/04/17 07:34:24;;;;;;;22.37;20.13;;;6.80;99.90;;;;;;5015344;28;20838;-71
2021/04/17 07:36:53;;;;;;;25.07;22.47;;;6.90;99.90;;;;;;5019347;28;20920;-71
2021/04/17 07:39:42;;;;;;;43.33;34.93;;;6.90;99.90;;;;;;5024225;28;20488;-71
2021/04/17 07:42:11;;;;;;;24.50;22.13;;;7.10;99.90;;;;;;5016882;28;21165;-70
2021/04/17 07:44:40;;;;;;;19.40;17.77;;;7.20;99.90;;;;;;5017161;28;20469;-71
2021/04/17 07:47:08;;;;;;;21.80;19.80;;;7.20;99.90;;;;;;5023523;28;20462;-70
2021/04/17 07:49:34;;;;;;;23.93;21.80;;;7.20;99.90;;;;;;5004280;28;20497;-72
2021/04/17 07:52:06;;;;;;;25.47;22.87;;;7.40;99.90;;;;;;5010400;28;20518;-70
2021/04/17 07:54:33;;;;;;;27.83;21.63;;;7.60;99.90;;;;;;5005232;28;20853;-71
2021/04/17 07:57:11;;;;;;;21.60;19.57;;;7.80;99.90;;;;;;5011034;28;20470;-70
2021/04/17 07:59:41;;;;;;;21.13;19.13;;;8.00;99.90;;;;;;5018151;28;20539;-71
2021/04/17 08:02:08;;;;;;;23.73;21.43;;;8.10;99.90;;;;;;5016752;28;20892;-71
2021/04/17 08:04:35;;;;;;;22.07;19.97;;;8.20;99.90;;;;;;5012023;28;20461;-70
2021/04/17 08:07:02;;;;;;;24.27;22.07;;;8.30;99.90;;;;;;5011065;28;20459;-71
2021/04/17 08:09:29;;;;;;;23.63;21.13;;;8.40;99.90;;;;;;5019715;28;20485;-70
2021/04/17 08:11:57;;;;;;;24.90;20.70;;;8.60;99.90;;;;;;5014964;28;20496;-71
2021/04/17 08:14:26;;;;;;;20.13;18.63;;;8.60;99.90;;;;;;5018979;28;20472;-70
2021/04/17 08:16:53;;;;;;;18.87;17.37;;;8.70;99.90;;;;;;5016037;28;20474;-71
2021/04/17 08:19:20;;;;;;;17.73;16.40;;;8.80;99.90;;;;;;5018756;28;20516;-72
2021/04/17 08:21:49;;;;;;;18.83;17.30;;;8.90;99.90;;;;;;5014370;28;20471;-71
2021/04/17 08:24:21;;;;;;;20.80;19.10;;;8.80;99.90;;;;;;5019326;28;20792;-73
2021/04/17 08:26:47;;;;;;;19.63;18.17;;;9.10;99.90;;;;;;5018501;28;20483;-71
2021/04/17 08:29:45;;;;;;;18.70;17.40;;;9.10;99.90;;;;;;5007737;28;20499;-72
2021/04/17 08:32:29;;;;;;;21.30;19.10;;;9.30;99.90;;;;;;5016704;28;20502;-72
2021/04/17 08:35:09;;;;;;;18.50;17.10;;;9.60;99.90;;;;;;5007088;28;20955;-70
2021/04/17 08:38:07;;;;;;;19.20;17.70;;;9.70;99.90;;;;;;5009960;28;20875;-73
2021/04/17 08:40:53;;;;;;;19.20;18.00;;;9.80;99.90;;;;;;5013778;28;20980;-71
2021/04/17 08:43:34;;;;;;;18.47;17.07;;;10.00;99.90;;;;;;5016181;28;20621;-71
2021/04/17 08:46:19;;;;;;;20.27;18.53;;;10.10;99.90;;;;;;5013116;28;20468;-71
2021/04/17 08:48:56;;;;;;;17.40;16.40;;;10.00;99.90;;;;;;5012479;28;20550;-71
2021/04/17 08:51:32;;;;;;;18.10;16.80;;;10.00;99.90;;;;;;5008042;28;20577;-71
2021/04/17 08:54:13;;;;;;;17.27;16.00;;;10.10;99.90;;;;;;5017985;28;20467;-73
2021/04/17 08:56:56;;;;;;;17.00;16.00;;;10.30;99.90;;;;;;5018325;28;20511;-71
2021/04/17 08:59:27;;;;;;;17.70;16.53;;;10.60;99.90;;;;;;5015149;28;20461;-72
2021/04/17 09:01:56;;;;;;;18.47;17.33;;;11.10;99.90;;;;;;5015210;28;20522;-71
2021/04/17 09:04:23;;;;;;;17.10;16.00;;;11.60;99.90;;;;;;5017055;28;20468;-72
2021/04/17 09:06:52;;;;;;;21.57;20.07;;;12.80;99.80;;;;;;5013458;28;20472;-74
2021/04/17 09:09:34;;;;;;;19.40;17.80;;;13.70;97.70;;;;;;5019592;28;20850;-73
2021/04/17 09:12:29;;;;;;;18.40;17.10;;;14.30;97.00;;;;;;5007893;28;20466;-72
2021/04/17 09:15:04;;;;;;;18.73;17.47;;;14.80;94.40;;;;;;5015745;28;20956;-71
2021/04/17 09:17:42;;;;;;;20.33;18.93;;;14.50;93.10;;;;;;5017169;28;20468;-71
2021/04/17 09:20:12;;;;;;;17.73;16.53;;;14.40;92.10;;;;;;5017982;28;20482;-73
2021/04/17 09:22:47;;;;;;;18.33;17.13;;;14.70;92.50;;;;;;5006356;28;20882;-72
2021/04/17 09:25:16;;;;;;;17.13;15.93;;;15.30;92.70;;;;;;4999047;28;20464;-71
2021/04/17 09:27:44;;;;;;;23.20;21.27;;;15.40;92.10;;;;;;5018653;28;21048;-73
2021/04/17 09:30:14;;;;;;;21.33;19.87;;;15.50;92.20;;;;;;5016523;28;20477;-72
2021/04/17 09:32:44;;;;;;;26.73;24.30;;;15.70;88.50;;;;;;5014469;28;20496;-73
2021/04/17 09:35:16;;;;;;;16.77;15.77;;;15.80;90.00;;;;;;5015947;28;20468;-72
2021/04/17 09:37:43;;;;;;;18.83;17.53;;;15.60;86.30;;;;;;5011586;28;20458;-70
2021/04/17 09:40:10;;;;;;;25.70;23.40;;;15.60;85.50;;;;;;5013084;28;20454;-71
2021/04/17 09:42:38;;;;;;;21.53;19.73;;;15.60;83.00;;;;;;5012152;28;20814;-71
2021/04/17 09:45:07;;;;;;;17.60;16.60;;;15.90;83.10;;;;;;5008272;28;20466;-72
2021/04/17 09:47:34;;;;;;;18.87;17.47;;;16.50;83.00;;;;;;5013750;28;20469;-72
2021/04/17 09:50:01;;;;;;;16.47;15.47;;;15.60;80.30;;;;;;5010218;28;20492;-71
2021/04/17 09:52:28;;;;;;;21.47;19.40;;;15.10;80.00;;;;;;5018979;28;20469;-71
2021/04/17 09:55:00;;;;;;;23.87;21.47;;;15.00;80.30;;;;;;5015258;28;20472;-72
2021/04/17 09:57:27;;;;;;;23.63;21.10;;;15.40;79.70;;;;;;5014444;28;20831;-71
2021/04/17 09:59:55;;;;;;;16.03;14.93;;;15.80;80.00;;;;;;5015056;28;20475;-71
2021/04/17 10:02:22;;;;;;;15.40;14.40;;;14.80;77.20;;;;;;5014316;28;20480;-71
2021/04/17 10:04:57;;;;;;;19.10;17.50;;;15.00;79.90;;;;;;5018603;28;20607;-71
2021/04/17 10:07:24;;;;;;;17.60;16.23;;;15.20;79.00;;;;;;5012873;28;20461;-71
2021/04/17 10:10:01;;;;;;;17.90;16.43;;;15.70;78.20;;;;;;5008641;28;20489;-72
2021/04/17 10:12:28;;;;;;;17.87;16.70;;;16.00;77.80;;;;;;5012818;28;20457;-71
2021/04/17 10:15:14;;;;;;;14.83;14.03;;;15.40;78.30;;;;;;5014988;28;20454;-71
2021/04/17 10:17:42;;;;;;;16.03;14.97;;;15.20;77.30;;;;;;5017839;28;20874;-72
2021/04/17 10:20:10;;;;;;;21.50;19.63;;;14.70;79.30;;;;;;5014814;28;20465;-70
2021/04/17 10:22:37;;;;;;;16.83;15.50;;;14.40;82.70;;;;;;5014325;28;20483;-71
2021/04/17 10:25:07;;;;;;;18.93;17.40;;;14.40;79.20;;;;;;5008218;28;21014;-72
2021/04/17 10:27:36;;;;;;;19.67;18.07;;;15.10;78.30;;;;;;5020264;28;20461;-71
2021/04/17 10:30:13;;;;;;;17.83;16.40;;;15.30;78.70;;;;;;5015881;28;20489;-72
2021/04/17 10:32:41;;;;;;;18.57;17.30;;;15.50;79.50;;;;;;5017413;28;20495;-71
2021/04/17 10:35:10;;;;;;;20.90;19.30;;;16.00;79.50;;;;;;5018336;28;20465;-70
2021/04/17 10:37:44;;;;;;;18.67;17.10;;;15.90;77.70;;;;;;5014060;28;20933;-71
2021/04/17 10:40:12;;;;;;;21.60;19.37;;;15.40;78.20;;;;;;5021502;28;20469;-70
2021/04/17 10:42:48;;;;;;;16.93;15.63;;;15.70;78.10;;;;;;5019118;28;20460;-71
2021/04/17 10:45:16;;;;;;;23.00;20.87;;;15.30;77.80;;;;;;5016943;28;20471;-71
2021/04/17 10:47:44;;;;;;;20.23;18.63;;;14.80;78.50;;;;;;5010151;28;20827;-71
2021/04/17 10:50:22;;;;;;;16.30;15.20;;;15.50;79.30;;;;;;5020515;28;20595;-72
2021/04/17 10:53:03;;;;;;;15.77;14.77;;;16.00;75.00;;;;;;5017460;28;20452;-72
2021/04/17 10:55:34;;;;;;;19.67;18.17;;;14.80;76.30;;;;;;5021549;28;20483;-70
2021/04/17 10:58:02;;;;;;;18.30;16.63;;;14.30;78.10;;;;;;5022494;28;20464;-70
2021/04/17 11:00:30;;;;;;;18.30;17.00;;;14.20;79.40;;;;;;5020596;28;20560;-71
2021/04/17 11:02:56;;;;;;;17.57;16.37;;;13.90;80.10;;;;;;5014182;28;20474;-70
2021/04/17 11:05:23;;;;;;;16.83;15.50;;;13.90;79.10;;;;;;5018384;28;20457;-70
2021/04/17 11:07:57;;;;;;;19.13;17.40;;;14.30;79.90;;;;;;5013758;28;20465;-71
2021/04/17 11:10:30;;;;;;;19.70;18.07;;;15.00;79.60;;;;;;5019938;28;20998;-71
2021/04/17 11:12:57;;;;;;;19.37;17.77;;;15.70;78.30;;;;;;5022196;28;20461;-71
2021/04/17 11:15:26;;;;;;;16.47;15.50;;;16.30;75.70;;;;;;5017859;28;20469;-70
2021/04/17 11:18:17;;;;;;;18.23;17.03;;;16.30;75.50;;;;;;5022316;28;20543;-71
2021/04/17 11:20:49;;;;;;;16.80;15.50;;;16.40;76.80;;;;;;5018750;28;20458;-71
2021/04/17 11:23:53;;;;;;;17.10;15.90;;;16.80;76.30;;;;;;5017418;28;20673;-71
2021/04/17 11:26:22;;;;;;;16.20;15.13;;;16.80;72.70;;;;;;5021125;28;20591;-70
2021/04/17 11:28:51;;;;;;;16.87;15.77;;;16.20;73.00;;;;;;5019582;28;20487;-70
2021/04/17 11:31:20;;;;;;;18.07;16.67;;;15.80;74.90;;;;;;5026273;28;20469;-70
2021/04/17 11:33:49;;;;;;;16.83;15.73;;;14.90;75.00;;;;;;5029178;28;20515;-71
2021/04/17 11:36:16;;;;;;;21.30;16.07;;;15.10;76.90;;;;;;5018112;28;20461;-71
2021/04/17 11:38:42;;;;;;;16.73;15.53;;;15.30;76.10;;;;;;5021486;28;20465;-70
2021/04/17 11:41:09;;;;;;;16.47;15.10;;;15.00;76.10;;;;;;5018740;28;20456;-71
2021/04/17 11:43:36;;;;;;;16.43;15.27;;;15.80;77.00;;;;;;5026276;28;20468;-71
2021/04/17 11:46:03;;;;;;;17.83;16.53;;;15.40;73.80;;;;;;5026256;28;20465;-71
2021/04/17 11:48:30;;;;;;;17.70;16.40;;;15.20;75.20;;;;;;5023045;28;20479;-71
2021/04/17 11:50:57;;;;;;;18.27;16.57;;;15.00;72.80;;;;;;5022091;28;20458;-72
2021/04/17 11:53:23;;;;;;;17.03;15.50;;;15.40;76.30;;;;;;5024600;28;20473;-71
2021/04/17 11:55:51;;;;;;;15.90;14.77;;;16.70;73.80;;;;;;5019402;28;20469;-71
2021/04/17 11:58:18;;;;;;;16.57;15.57;;;16.20;73.00;;;;;;5025137;28;20879;-71
2021/04/17 12:00:45;;;;;;;19.37;17.80;;;15.60;73.00;;;;;;5020473;28;20472;-71
2021/04/17 12:03:15;;;;;;;17.67;16.57;;;15.40;73.70;;;;;;5022228;28;20477;-70
2021/04/17 12:05:42;;;;;;;16.87;15.60;;;16.20;72.10;;;;;;5016657;28;20461;-71
2021/04/17 12:08:09;;;;;;;17.53;16.33;;;16.60;71.20;;;;;;5018218;28;20488;-71
2021/04/17 12:10:35;;;;;;;18.63;17.23;;;16.90;71.20;;;;;;5026430;28;20851;-71
2021/04/17 12:13:01;;;;;;;19.17;17.57;;;16.90;70.40;;;;;;5016430;28;20469;-71
2021/04/17 12:15:28;;;;;;;20.70;19.30;;;17.00;69.80;;;;;;5016832;28;20480;-71
2021/04/17 12:17:56;;;;;;;20.30;18.77;;;16.60;68.70;;;;;;5018165;28;20461;-71
2021/04/17 12:20:23;;;;;;;19.20;17.53;;;16.80;69.20;;;;;;5023279;28;20507;-71
2021/04/17 12:22:51;;;;;;;16.83;15.50;;;17.40;68.60;;;;;;5020442;28;20464;-71
2021/04/17 12:25:18;;;;;;;17.80;16.40;;;17.70;68.90;;;;;;5024134;28;20466;-71
2021/04/17 12:27:47;;;;;;;17.50;16.00;;;18.50;69.40;;;;;;5024474;28;20487;-71
2021/04/17 12:30:15;;;;;;;16.53;15.33;;;18.90;67.20;;;;;;5019011;28;20991;-72
2021/04/17 12:32:42;;;;;;;16.87;15.50;;;18.70;69.90;;;;;;5020737;28;20500;-71
2021/04/17 12:35:12;;;;;;;17.00;15.60;;;17.90;68.90;;;;;;5016412;28;20480;-71
2021/04/17 12:37:39;;;;;;;17.57;16.40;;;17.60;68.50;;;;;;5019069;28;21090;-71
2021/04/17 12:40:06;;;;;;;16.40;15.50;;;17.90;69.40;;;;;;5013374;28;20469;-72
2021/04/17 12:42:33;;;;;;;17.10;16.10;;;17.60;68.40;;;;;;5021253;28;20460;-71
2021/04/17 12:45:00;;;;;;;19.20;17.70;;;17.10;70.20;;;;;;5015906;28;20470;-72